createdAt,value
2019-05-14T00:04:02.261Z,10.00
2019-05-14T00:09:07.283Z,9.10
2019-05-14T00:14:12.560Z,9.17
2019-05-14T00:19:17.556Z,8.97
2019-05-14T00:24:22.527Z,8.37
2019-05-14T00:29:27.579Z,8.23
2019-05-14T00:34:32.484Z,8.30
2019-05-14T00:39:37.295Z,8.10
2019-05-14T00:44:53.810Z,6.70
2019-05-14T00:49:48.844Z,7.67
2019-05-14T00:54:55.492Z,6.70
2019-05-14T01:00:01.148Z,7.00
2019-05-14T01:05:07.350Z,7.00
2019-05-14T01:10:12.308Z,6.80
2019-05-14T01:15:17.438Z,7.00
2019-05-14T01:20:22.338Z,6.53
2019-05-14T01:25:27.128Z,6.43
2019-05-14T01:30:32.178Z,7.80
2019-05-14T01:35:37.168Z,6.40
2019-05-14T01:40:42.147Z,6.60
2019-05-14T01:45:47.301Z,6.20
2019-05-14T01:50:52.615Z,6.80
2019-05-14T01:55:57.505Z,6.43
2019-05-14T02:01:02.486Z,6.27
2019-05-14T02:06:07.500Z,6.37
2019-05-14T02:11:12.280Z,5.93
2019-05-14T02:16:17.128Z,6.40
2019-05-14T02:21:22.852Z,6.27
2019-05-14T02:26:28.240Z,6.30
2019-05-14T02:31:33.125Z,5.97
2019-05-14T02:36:40.007Z,5.90
2019-05-14T02:41:49.643Z,5.80
2019-05-14T02:46:52.599Z,5.83
2019-05-14T02:51:59.063Z,6.27
2019-05-14T02:57:05.078Z,6.20
2019-05-14T03:02:10.538Z,6.27
2019-05-14T03:07:19.148Z,6.30
2019-05-14T03:12:24.049Z,6.63
2019-05-14T03:17:30.041Z,5.70
2019-05-14T03:22:46.937Z,6.23
2019-05-14T03:27:42.142Z,6.33
2019-05-14T03:32:52.183Z,6.30
2019-05-14T03:37:53.701Z,6.10
2019-05-14T03:42:59.927Z,6.20
2019-05-14T03:48:09.998Z,5.73
2019-05-14T03:53:12.801Z,6.37
2019-05-14T03:58:21.017Z,6.90
2019-05-14T04:03:24.475Z,6.20
2019-05-14T04:08:30.759Z,6.43
2019-05-14T04:13:35.599Z,6.13
2019-05-14T04:18:40.902Z,6.03
2019-05-14T04:23:50.914Z,5.93
2019-05-14T04:28:55.576Z,5.80
2019-05-14T04:34:02.547Z,6.20
2019-05-14T04:39:09.404Z,6.50
2019-05-14T04:44:14.294Z,9.60
2019-05-14T04:49:20.035Z,9.70
2019-05-14T04:54:25.384Z,7.13
2019-05-14T04:59:30.308Z,6.77
2019-05-14T05:04:35.307Z,6.13
2019-05-14T05:09:41.428Z,6.20
2019-05-14T05:14:49.075Z,6.00
2019-05-14T05:19:53.292Z,6.63
2019-05-14T05:24:58.977Z,6.20
2019-05-14T05:30:08.488Z,6.10
2019-05-14T05:35:14.497Z,7.87
2019-05-14T05:40:19.896Z,8.17
2019-05-14T05:45:25.201Z,9.40
2019-05-14T05:50:30.119Z,16.80
2019-05-14T05:55:35.613Z,13.93
2019-05-14T06:00:42.392Z,12.83
2019-05-14T06:05:49.223Z,12.23
2019-05-14T06:10:54.907Z,9.43
2019-05-14T06:16:00.553Z,8.50
2019-05-14T06:21:05.948Z,7.13
2019-05-14T06:26:11.880Z,6.73
2019-05-14T06:31:19.252Z,7.77
2019-05-14T06:36:24.244Z,6.40
2019-05-14T06:41:29.437Z,6.50
2019-05-14T06:46:34.335Z,8.00
2019-05-14T06:51:39.668Z,7.03
2019-05-14T06:56:45.120Z,6.07
2019-05-14T07:01:50.746Z,6.27
2019-05-14T07:06:55.900Z,5.20
2019-05-14T07:12:01.856Z,5.17
2019-05-14T07:17:09.135Z,5.47
2019-05-14T07:22:13.677Z,5.00
2019-05-14T07:27:19.336Z,4.20
2019-05-14T07:32:24.910Z,4.77
2019-05-14T07:37:29.959Z,5.60
2019-05-14T07:42:38.374Z,5.33
2019-05-14T07:47:43.140Z,5.23
2019-05-14T07:52:49.771Z,5.07
2019-05-14T07:57:54.997Z,6.10
2019-05-14T08:03:00.040Z,6.90
2019-05-14T08:08:04.964Z,7.73
2019-05-14T08:13:10.617Z,7.87
2019-05-14T08:18:15.826Z,7.37
2019-05-14T08:23:21.033Z,8.20
2019-05-14T08:28:26.354Z,7.53
2019-05-14T08:33:32.244Z,7.73
2019-05-14T08:38:38.482Z,8.27
2019-05-14T08:43:43.970Z,7.67
2019-05-14T08:48:49.858Z,7.87
2019-05-14T08:53:55.475Z,7.77
2019-05-14T08:59:00.582Z,7.33
2019-05-14T09:04:08.985Z,8.03
2019-05-14T09:09:14.538Z,8.20
2019-05-14T09:14:21.888Z,8.00
2019-05-14T09:19:28.700Z,8.40
2019-05-14T09:24:38.480Z,8.90
2019-05-14T09:29:48.422Z,8.80
2019-05-14T09:34:53.477Z,8.90
2019-05-14T09:39:58.659Z,9.33
2019-05-14T09:45:10.514Z,9.47
2019-05-14T09:50:18.841Z,9.63
2019-05-14T09:55:21.884Z,10.43
2019-05-14T10:00:26.873Z,13.93
2019-05-14T10:05:31.805Z,11.77
2019-05-14T10:10:39.662Z,12.40
2019-05-14T10:15:44.213Z,13.80
2019-05-14T10:20:49.704Z,14.70
2019-05-14T10:25:57.561Z,14.87
2019-05-14T10:31:03.918Z,15.50
2019-05-14T10:36:09.478Z,15.60
2019-05-14T10:41:14.738Z,15.57
2019-05-14T10:46:20.137Z,17.30
2019-05-14T10:51:25.522Z,18.20
2019-05-14T10:56:30.885Z,17.77
2019-05-14T11:01:38.904Z,19.47
2019-05-14T11:06:43.814Z,19.70
2019-05-14T11:11:49.116Z,19.60
2019-05-14T11:16:54.974Z,20.30
2019-05-14T11:22:00.893Z,20.23
2019-05-14T11:27:07.400Z,19.33
2019-05-14T11:32:13.023Z,20.67
2019-05-14T11:37:18.810Z,21.00
2019-05-14T11:42:24.490Z,20.13
2019-05-14T11:47:30.759Z,21.80
2019-05-14T11:52:36.046Z,19.93
2019-05-14T11:57:41.461Z,20.83
2019-05-14T12:02:46.723Z,21.97
2019-05-14T12:07:51.764Z,22.63
2019-05-14T12:12:58.482Z,21.53
2019-05-14T12:18:04.473Z,22.50
2019-05-14T12:23:09.983Z,23.97
2019-05-14T12:28:15.849Z,23.50
2019-05-14T12:33:21.343Z,24.17
2019-05-14T12:38:29.540Z,23.83
2019-05-14T12:43:33.192Z,22.83
2019-05-14T12:48:39.026Z,24.53
2019-05-14T12:53:44.503Z,24.00
2019-05-14T12:58:49.448Z,24.37
2019-05-14T13:03:54.569Z,23.07
2019-05-14T13:08:59.839Z,23.33
2019-05-14T13:14:05.031Z,21.90
2019-05-14T13:19:10.429Z,21.93
2019-05-14T13:24:18.110Z,22.73
2019-05-14T13:29:23.142Z,21.23
2019-05-14T13:34:29.009Z,20.87
2019-05-14T13:39:34.892Z,22.87
2019-05-14T13:44:41.370Z,22.73
2019-05-14T13:49:48.736Z,21.67
2019-05-14T13:54:53.261Z,21.93
2019-05-14T13:59:58.960Z,22.87
2019-05-14T14:05:08.575Z,23.90
2019-05-14T14:10:14.009Z,22.07
2019-05-14T14:15:19.261Z,19.87
2019-05-14T14:20:24.692Z,21.93
2019-05-14T14:25:30.096Z,20.20
2019-05-14T14:30:35.295Z,20.30
2019-05-14T14:35:41.230Z,19.73
2019-05-14T14:40:48.401Z,19.80
2019-05-14T14:45:53.168Z,19.80
2019-05-14T14:50:58.763Z,19.37
2019-05-14T14:56:04.274Z,18.40
2019-05-14T15:01:09.919Z,18.47
2019-05-14T15:06:15.115Z,17.67
2019-05-14T15:11:20.432Z,16.53
2019-05-14T15:16:25.535Z,17.10
2019-05-14T15:21:30.919Z,17.23
2019-05-14T15:26:36.347Z,18.93
2019-05-14T15:31:41.861Z,17.80
2019-05-14T15:36:49.329Z,17.20
2019-05-14T15:41:54.170Z,17.67
2019-05-14T15:46:59.228Z,15.97
2019-05-14T15:52:08.291Z,15.93
2019-05-14T15:57:12.974Z,15.90
2019-05-14T16:02:20.106Z,16.30
2019-05-14T16:07:25.638Z,16.03
2019-05-14T16:12:32.261Z,15.13
2019-05-14T16:17:48.165Z,14.17
2019-05-14T16:22:44.859Z,14.40
2019-05-14T16:27:50.007Z,14.40
2019-05-14T16:32:55.137Z,14.43
2019-05-14T16:38:00.426Z,14.47
2019-05-14T16:43:05.583Z,13.87
2019-05-14T16:48:11.250Z,16.07
2019-05-14T16:53:16.566Z,16.10
2019-05-14T16:58:21.567Z,15.83
2019-05-14T17:03:29.733Z,15.00
2019-05-14T17:08:34.227Z,14.33
2019-05-14T17:13:39.163Z,13.73
2019-05-14T17:18:44.662Z,13.90
2019-05-14T17:23:49.858Z,16.80
2019-05-14T17:28:55.188Z,16.07
2019-05-14T17:34:00.548Z,14.97
2019-05-14T17:39:08.668Z,15.07
2019-05-14T17:44:13.837Z,15.20
2019-05-14T17:49:20.372Z,14.63
2019-05-14T17:54:28.224Z,14.50
2019-05-14T17:59:33.649Z,15.53
2019-05-14T18:04:38.928Z,16.40
2019-05-14T18:09:43.972Z,16.07
2019-05-14T18:14:50.018Z,16.23
2019-05-14T18:19:55.500Z,16.23
2019-05-14T18:25:01.846Z,15.97
2019-05-14T18:30:09.205Z,17.00
2019-05-14T18:35:14.927Z,18.07
2019-05-14T18:40:20.453Z,17.33
2019-05-14T18:45:25.660Z,16.53
2019-05-14T18:50:30.823Z,18.83
2019-05-14T18:55:38.416Z,17.63
2019-05-14T19:00:42.931Z,19.20
2019-05-14T19:05:48.344Z,19.13
2019-05-14T19:10:53.526Z,19.40
2019-05-14T19:15:59.284Z,20.20
2019-05-14T19:21:04.647Z,19.97
2019-05-14T19:26:09.726Z,20.83
2019-05-14T19:31:14.913Z,20.70
2019-05-14T19:36:20.379Z,19.97
2019-05-14T19:41:25.421Z,21.37
2019-05-14T19:46:30.524Z,22.23
2019-05-14T19:51:35.642Z,22.13
2019-05-14T19:56:52.445Z,23.93
2019-05-14T20:01:48.752Z,24.17
2019-05-14T20:06:55.060Z,23.80
2019-05-14T20:12:00.254Z,25.17
2019-05-14T20:17:05.366Z,25.37
2019-05-14T20:22:10.488Z,28.10
2019-05-14T20:27:15.546Z,27.17
2019-05-14T20:32:20.403Z,28.67
2019-05-14T20:37:25.382Z,48.67
2019-05-14T20:42:30.328Z,46.07
2019-05-14T20:47:35.359Z,45.57
2019-05-14T20:52:40.268Z,45.47
2019-05-14T20:57:45.292Z,43.50
2019-05-14T21:02:50.168Z,44.53
2019-05-14T21:07:55.134Z,45.00
2019-05-14T21:13:00.162Z,43.47
2019-05-14T21:18:05.187Z,45.23
2019-05-14T21:23:10.328Z,45.40
2019-05-14T21:28:15.305Z,46.80
2019-05-14T21:33:20.543Z,46.83
2019-05-14T21:38:28.726Z,48.53
2019-05-14T21:43:35.465Z,48.00
2019-05-14T21:48:40.490Z,50.17
2019-05-14T21:53:48.101Z,46.00
2019-05-14T21:58:52.228Z,47.33
2019-05-14T22:03:59.254Z,44.37
2019-05-14T22:09:08.706Z,43.97
2019-05-14T22:14:13.237Z,44.10
2019-05-14T22:19:19.004Z,42.70
2019-05-14T22:24:24.303Z,44.50
2019-05-14T22:29:30.227Z,42.37
2019-05-14T22:34:35.450Z,38.50
2019-05-14T22:39:40.329Z,41.33
2019-05-14T22:44:45.582Z,40.57
2019-05-14T22:49:50.537Z,41.20
2019-05-14T22:54:58.640Z,39.83
2019-05-14T23:00:03.596Z,37.47
2019-05-14T23:05:10.098Z,38.20
2019-05-14T23:10:15.272Z,38.93
2019-05-14T23:15:20.242Z,36.53
2019-05-14T23:20:25.208Z,37.20
2019-05-14T23:25:30.219Z,35.37
2019-05-14T23:30:35.199Z,34.93
2019-05-14T23:35:40.151Z,34.90
2019-05-14T23:40:45.130Z,32.20
2019-05-14T23:45:50.197Z,32.60
2019-05-14T23:50:55.143Z,32.13
2019-05-14T23:56:00.892Z,31.10
